sensor_id;sensor_type;location;lat;lon;timestamp;temperature;humidity
15143;DHT22;7672;50.834;6.286;2023-03-19T00:00:54;13.20;99.90
15143;DHT22;7672;50.834;6.286;2023-03-19T00:03:21;13.10;99.90
15143;DHT22;7672;50.834;6.286;2023-03-19T00:05:53;13.10;99.90
15143;DHT22;7672;50.834;6.286;2023-03-19T00:08:23;13.10;99.90
15143;DHT22;7672;50.834;6.286;2023-03-19T00:10:51;13.00;99.90
15143;DHT22;7672;50.834;6.286;2023-03-19T00:13:21;13.00;99.90
15143;DHT22;7672;50.834;6.286;2023-03-19T00:15:49;13.00;99.90
15143;DHT22;7672;50.834;6.286;2023-03-19T00:18:16;12.90;99.90
15143;DHT22;7672;50.834;6.286;2023-03-19T00:20:44;12.90;99.90
15143;DHT22;7672;50.834;6.286;2023-03-19T00:23:11;12.80;99.90
15143;DHT22;7672;50.834;6.286;2023-03-19T00:25:39;12.80;99.90
15143;DHT22;7672;50.834;6.286;2023-03-19T00:28:06;12.70;99.90
15143;DHT22;7672;50.834;6.286;2023-03-19T00:30:42;12.70;99.90
15143;DHT22;7672;50.834;6.286;2023-03-19T00:33:11;12.70;99.90
15143;DHT22;7672;50.834;6.286;2023-03-19T00:35:39;12.60;99.90
15143;DHT22;7672;50.834;6.286;2023-03-19T00:38:07;12.60;99.90
15143;DHT22;7672;50.834;6.286;2023-03-19T00:40:34;12.50;99.90
15143;DHT22;7672;50.834;6.286;2023-03-19T00:43:05;12.50;99.90
15143;DHT22;7672;50.834;6.286;2023-03-19T00:45:32;12.50;99.90
15143;DHT22;7672;50.834;6.286;2023-03-19T00:48:01;12.50;99.90
15143;DHT22;7672;50.834;6.286;2023-03-19T00:50:29;12.40;99.90
15143;DHT22;7672;50.834;6.286;2023-03-19T00:52:56;12.40;99.90
15143;DHT22;7672;50.834;6.286;2023-03-19T00:55:23;12.40;99.90
15143;DHT22;7672;50.834;6.286;2023-03-19T00:57:51;12.30;99.90
15143;DHT22;7672;50.834;6.286;2023-03-19T01:00:19;12.30;99.90
15143;DHT22;7672;50.834;6.286;2023-03-19T01:02:49;12.30;99.90
15143;DHT22;7672;50.834;6.286;2023-03-19T01:05:17;12.30;99.90
15143;DHT22;7672;50.834;6.286;2023-03-19T01:07:44;12.30;99.90
15143;DHT22;7672;50.834;6.286;2023-03-19T01:10:12;12.30;99.90
15143;DHT22;7672;50.834;6.286;2023-03-19T01:12:39;12.30;99.90
15143;DHT22;7672;50.834;6.286;2023-03-19T01:15:07;12.30;99.90
15143;DHT22;7672;50.834;6.286;2023-03-19T01:17:35;12.20;99.90
15143;DHT22;7672;50.834;6.286;2023-03-19T01:20:04;12.30;99.90
15143;DHT22;7672;50.834;6.286;2023-03-19T01:22:39;12.30;99.90
15143;DHT22;7672;50.834;6.286;2023-03-19T01:25:11;12.30;99.90
15143;DHT22;7672;50.834;6.286;2023-03-19T01:27:39;12.30;99.90
15143;DHT22;7672;50.834;6.286;2023-03-19T01:30:08;12.30;99.90
15143;DHT22;7672;50.834;6.286;2023-03-19T01:32:36;12.30;99.90
15143;DHT22;7672;50.834;6.286;2023-03-19T01:35:09;12.30;99.90
15143;DHT22;7672;50.834;6.286;2023-03-19T01:37:37;12.40;99.90
15143;DHT22;7672;50.834;6.286;2023-03-19T01:40:06;12.40;99.90
15143;DHT22;7672;50.834;6.286;2023-03-19T01:45:44;12.40;99.90
15143;DHT22;7672;50.834;6.286;2023-03-19T01:48:43;12.50;99.90
15143;DHT22;7672;50.834;6.286;2023-03-19T01:51:17;12.50;99.90
15143;DHT22;7672;50.834;6.286;2023-03-19T01:53:51;12.50;99.90
15143;DHT22;7672;50.834;6.286;2023-03-19T01:56:28;12.50;99.90
15143;DHT22;7672;50.834;6.286;2023-03-19T01:59:26;12.60;99.90
15143;DHT22;7672;50.834;6.286;2023-03-19T02:04:52;12.60;99.90
15143;DHT22;7672;50.834;6.286;2023-03-19T02:07:37;12.70;99.90
15143;DHT22;7672;50.834;6.286;2023-03-19T02:10:11;12.70;99.90
15143;DHT22;7672;50.834;6.286;2023-03-19T02:12:42;12.80;99.90
15143;DHT22;7672;50.834;6.286;2023-03-19T02:15:10;12.80;99.90
15143;DHT22;7672;50.834;6.286;2023-03-19T02:17:39;12.80;99.90
15143;DHT22;7672;50.834;6.286;2023-03-19T02:20:29;12.90;99.90
15143;DHT22;7672;50.834;6.286;2023-03-19T02:26:10;12.90;99.90
15143;DHT22;7672;50.834;6.286;2023-03-19T02:28:45;13.00;99.90
15143;DHT22;7672;50.834;6.286;2023-03-19T02:31:15;13.00;99.90
15143;DHT22;7672;50.834;6.286;2023-03-19T02:33:43;13.00;99.90
15143;DHT22;7672;50.834;6.286;2023-03-19T02:36:20;13.00;99.90
15143;DHT22;7672;50.834;6.286;2023-03-19T02:38:49;13.00;99.90
15143;DHT22;7672;50.834;6.286;2023-03-19T02:41:19;13.00;99.90
15143;DHT22;7672;50.834;6.286;2023-03-19T02:43:48;13.00;99.90
15143;DHT22;7672;50.834;6.286;2023-03-19T02:46:20;13.00;99.90
15143;DHT22;7672;50.834;6.286;2023-03-19T02:48:50;13.00;99.90
15143;DHT22;7672;50.834;6.286;2023-03-19T02:51:19;13.00;99.90
15143;DHT22;7672;50.834;6.286;2023-03-19T02:53:54;12.90;99.90
15143;DHT22;7672;50.834;6.286;2023-03-19T02:56:22;12.90;99.90
15143;DHT22;7672;50.834;6.286;2023-03-19T02:58:51;12.90;99.90
15143;DHT22;7672;50.834;6.286;2023-03-19T03:01:19;12.90;99.90
15143;DHT22;7672;50.834;6.286;2023-03-19T03:03:46;12.90;99.90
15143;DHT22;7672;50.834;6.286;2023-03-19T03:06:13;12.80;99.90
15143;DHT22;7672;50.834;6.286;2023-03-19T03:08:41;12.80;99.90
15143;DHT22;7672;50.834;6.286;2023-03-19T03:11:09;12.80;99.90
15143;DHT22;7672;50.834;6.286;2023-03-19T03:13:36;12.80;99.90
15143;DHT22;7672;50.834;6.286;2023-03-19T03:16:03;12.70;99.90
15143;DHT22;7672;50.834;6.286;2023-03-19T03:18:31;12.70;99.90
15143;DHT22;7672;50.834;6.286;2023-03-19T03:20:58;12.70;99.90
15143;DHT22;7672;50.834;6.286;2023-03-19T03:23:25;12.60;99.90
15143;DHT22;7672;50.834;6.286;2023-03-19T03:25:53;12.60;99.90
15143;DHT22;7672;50.834;6.286;2023-03-19T03:28:19;12.60;99.90
15143;DHT22;7672;50.834;6.286;2023-03-19T03:30:46;12.50;99.90
15143;DHT22;7672;50.834;6.286;2023-03-19T03:33:14;12.60;99.90
15143;DHT22;7672;50.834;6.286;2023-03-19T03:35:42;12.50;99.90
15143;DHT22;7672;50.834;6.286;2023-03-19T03:38:09;12.50;99.90
15143;DHT22;7672;50.834;6.286;2023-03-19T03:40:36;12.40;99.90
15143;DHT22;7672;50.834;6.286;2023-03-19T03:43:03;12.40;99.90
15143;DHT22;7672;50.834;6.286;2023-03-19T03:45:30;12.40;99.90
15143;DHT22;7672;50.834;6.286;2023-03-19T03:47:58;12.40;99.90
15143;DHT22;7672;50.834;6.286;2023-03-19T03:50:24;12.40;99.90
15143;DHT22;7672;50.834;6.286;2023-03-19T03:52:51;12.50;99.90
15143;DHT22;7672;50.834;6.286;2023-03-19T03:55:18;12.40;99.90
15143;DHT22;7672;50.834;6.286;2023-03-19T03:57:45;12.50;99.90
15143;DHT22;7672;50.834;6.286;2023-03-19T04:00:12;12.50;99.90
15143;DHT22;7672;50.834;6.286;2023-03-19T04:02:39;12.50;99.90
15143;DHT22;7672;50.834;6.286;2023-03-19T04:05:07;12.50;99.90
15143;DHT22;7672;50.834;6.286;2023-03-19T04:07:33;12.50;99.90
15143;DHT22;7672;50.834;6.286;2023-03-19T04:10:03;12.60;99.90
15143;DHT22;7672;50.834;6.286;2023-03-19T04:12:31;12.60;99.90
15143;DHT22;7672;50.834;6.286;2023-03-19T04:14:58;12.60;99.90
15143;DHT22;7672;50.834;6.286;2023-03-19T04:17:24;12.60;99.90
15143;DHT22;7672;50.834;6.286;2023-03-19T04:19:51;12.60;99.90
15143;DHT22;7672;50.834;6.286;2023-03-19T04:22:18;12.60;99.90
15143;DHT22;7672;50.834;6.286;2023-03-19T04:24:45;12.60;99.90
15143;DHT22;7672;50.834;6.286;2023-03-19T04:27:12;12.60;99.90
15143;DHT22;7672;50.834;6.286;2023-03-19T04:29:38;12.60;99.90
15143;DHT22;7672;50.834;6.286;2023-03-19T04:32:06;12.60;99.90
15143;DHT22;7672;50.834;6.286;2023-03-19T04:34:32;12.60;99.90
15143;DHT22;7672;50.834;6.286;2023-03-19T04:37:00;12.60;99.90
15143;DHT22;7672;50.834;6.286;2023-03-19T04:39:27;12.60;99.90
15143;DHT22;7672;50.834;6.286;2023-03-19T04:41:54;12.60;99.90
15143;DHT22;7672;50.834;6.286;2023-03-19T04:44:22;12.60;99.90
15143;DHT22;7672;50.834;6.286;2023-03-19T04:46:49;12.60;99.90
15143;DHT22;7672;50.834;6.286;2023-03-19T04:49:16;12.60;99.90
15143;DHT22;7672;50.834;6.286;2023-03-19T04:51:42;12.60;99.90
15143;DHT22;7672;50.834;6.286;2023-03-19T04:54:09;12.60;99.90
15143;DHT22;7672;50.834;6.286;2023-03-19T04:56:36;12.60;99.90
15143;DHT22;7672;50.834;6.286;2023-03-19T04:59:03;12.60;99.90
15143;DHT22;7672;50.834;6.286;2023-03-19T05:01:30;12.60;99.90
15143;DHT22;7672;50.834;6.286;2023-03-19T05:03:57;12.60;99.90
15143;DHT22;7672;50.834;6.286;2023-03-19T05:06:24;12.60;99.90
15143;DHT22;7672;50.834;6.286;2023-03-19T05:08:52;12.70;99.90
15143;DHT22;7672;50.834;6.286;2023-03-19T05:11:19;12.70;99.90
15143;DHT22;7672;50.834;6.286;2023-03-19T05:13:46;12.70;99.90
15143;DHT22;7672;50.834;6.286;2023-03-19T05:16:13;12.70;99.90
15143;DHT22;7672;50.834;6.286;2023-03-19T05:18:40;12.80;99.90
15143;DHT22;7672;50.834;6.286;2023-03-19T05:21:10;12.80;99.90
15143;DHT22;7672;50.834;6.286;2023-03-19T05:23:38;12.80;99.90
15143;DHT22;7672;50.834;6.286;2023-03-19T05:26:05;12.80;99.90
15143;DHT22;7672;50.834;6.286;2023-03-19T05:28:33;12.80;99.90
15143;DHT22;7672;50.834;6.286;2023-03-19T05:31:00;12.80;99.90
15143;DHT22;7672;50.834;6.286;2023-03-19T05:33:26;12.90;99.90
15143;DHT22;7672;50.834;6.286;2023-03-19T05:35:53;12.90;99.90
15143;DHT22;7672;50.834;6.286;2023-03-19T05:38:23;12.90;99.90
15143;DHT22;7672;50.834;6.286;2023-03-19T05:40:51;12.90;99.90
15143;DHT22;7672;50.834;6.286;2023-03-19T05:43:18;13.00;99.90
15143;DHT22;7672;50.834;6.286;2023-03-19T05:45:49;12.90;99.90
15143;DHT22;7672;50.834;6.286;2023-03-19T05:48:19;12.90;99.90
15143;DHT22;7672;50.834;6.286;2023-03-19T05:50:48;12.90;99.90
15143;DHT22;7672;50.834;6.286;2023-03-19T05:53:15;13.00;99.90
15143;DHT22;7672;50.834;6.286;2023-03-19T05:55:42;13.00;99.90
15143;DHT22;7672;50.834;6.286;2023-03-19T05:58:09;13.00;99.90
15143;DHT22;7672;50.834;6.286;2023-03-19T06:00:36;12.90;99.90
15143;DHT22;7672;50.834;6.286;2023-03-19T06:03:03;13.00;99.90
15143;DHT22;7672;50.834;6.286;2023-03-19T06:05:31;13.00;99.90
15143;DHT22;7672;50.834;6.286;2023-03-19T06:07:57;13.00;99.90
15143;DHT22;7672;50.834;6.286;2023-03-19T06:10:24;13.00;99.90
15143;DHT22;7672;50.834;6.286;2023-03-19T06:12:52;13.00;99.90
15143;DHT22;7672;50.834;6.286;2023-03-19T06:15:19;13.10;99.90
15143;DHT22;7672;50.834;6.286;2023-03-19T06:17:46;13.10;99.90
15143;DHT22;7672;50.834;6.286;2023-03-19T06:20:14;13.10;99.90
15143;DHT22;7672;50.834;6.286;2023-03-19T06:22:41;13.10;99.90
15143;DHT22;7672;50.834;6.286;2023-03-19T06:25:14;13.10;99.90
15143;DHT22;7672;50.834;6.286;2023-03-19T06:27:41;13.10;99.90
15143;DHT22;7672;50.834;6.286;2023-03-19T06:30:10;13.10;99.90
15143;DHT22;7672;50.834;6.286;2023-03-19T06:32:40;13.10;99.90
15143;DHT22;7672;50.834;6.286;2023-03-19T06:35:08;13.20;99.90
15143;DHT22;7672;50.834;6.286;2023-03-19T06:37:35;13.20;99.90
15143;DHT22;7672;50.834;6.286;2023-03-19T06:40:03;13.20;99.90
15143;DHT22;7672;50.834;6.286;2023-03-19T06:42:31;13.20;99.90
15143;DHT22;7672;50.834;6.286;2023-03-19T06:44:58;13.20;99.90
15143;DHT22;7672;50.834;6.286;2023-03-19T06:47:25;13.30;99.90
15143;DHT22;7672;50.834;6.286;2023-03-19T06:49:52;13.30;99.90
15143;DHT22;7672;50.834;6.286;2023-03-19T06:52:19;13.30;99.90
15143;DHT22;7672;50.834;6.286;2023-03-19T06:54:46;13.40;99.90
15143;DHT22;7672;50.834;6.286;2023-03-19T06:57:13;13.50;99.90
15143;DHT22;7672;50.834;6.286;2023-03-19T06:59:40;13.50;99.90
15143;DHT22;7672;50.834;6.286;2023-03-19T07:02:10;13.60;99.90
15143;DHT22;7672;50.834;6.286;2023-03-19T07:04:37;13.70;99.90
15143;DHT22;7672;50.834;6.286;2023-03-19T07:07:04;13.90;99.90
15143;DHT22;7672;50.834;6.286;2023-03-19T07:09:31;14.00;99.90
15143;DHT22;7672;50.834;6.286;2023-03-19T07:11:58;14.10;99.90
15143;DHT22;7672;50.834;6.286;2023-03-19T07:14:25;14.20;99.90
15143;DHT22;7672;50.834;6.286;2023-03-19T07:16:52;14.30;99.90
15143;DHT22;7672;50.834;6.286;2023-03-19T07:19:19;14.40;99.90
15143;DHT22;7672;50.834;6.286;2023-03-19T07:21:46;14.50;99.90
15143;DHT22;7672;50.834;6.286;2023-03-19T07:24:13;14.50;99.90
15143;DHT22;7672;50.834;6.286;2023-03-19T07:26:39;14.60;99.90
15143;DHT22;7672;50.834;6.286;2023-03-19T07:29:07;14.60;99.90
15143;DHT22;7672;50.834;6.286;2023-03-19T07:31:35;14.70;99.90
15143;DHT22;7672;50.834;6.286;2023-03-19T07:34:02;14.70;99.90
15143;DHT22;7672;50.834;6.286;2023-03-19T07:36:29;14.80;99.90
15143;DHT22;7672;50.834;6.286;2023-03-19T07:38:57;14.80;99.90
15143;DHT22;7672;50.834;6.286;2023-03-19T07:41:24;14.80;99.90
15143;DHT22;7672;50.834;6.286;2023-03-19T07:43:51;14.90;99.90
15143;DHT22;7672;50.834;6.286;2023-03-19T07:46:18;14.90;99.90
15143;DHT22;7672;50.834;6.286;2023-03-19T07:48:44;15.10;99.90
15143;DHT22;7672;50.834;6.286;2023-03-19T07:51:12;15.00;99.90
15143;DHT22;7672;50.834;6.286;2023-03-19T07:53:38;15.10;99.90
15143;DHT22;7672;50.834;6.286;2023-03-19T07:56:05;15.20;99.90
15143;DHT22;7672;50.834;6.286;2023-03-19T07:58:32;15.30;99.90
15143;DHT22;7672;50.834;6.286;2023-03-19T08:00:59;15.50;99.90
15143;DHT22;7672;50.834;6.286;2023-03-19T08:03:26;15.60;99.90
15143;DHT22;7672;50.834;6.286;2023-03-19T08:05:53;15.90;99.90
15143;DHT22;7672;50.834;6.286;2023-03-19T08:08:20;16.10;99.90
15143;DHT22;7672;50.834;6.286;2023-03-19T08:10:46;16.40;99.90
15143;DHT22;7672;50.834;6.286;2023-03-19T08:13:16;16.80;99.90
15143;DHT22;7672;50.834;6.286;2023-03-19T08:15:42;17.00;99.90
15143;DHT22;7672;50.834;6.286;2023-03-19T08:18:09;17.40;99.90
15143;DHT22;7672;50.834;6.286;2023-03-19T08:20:36;17.80;99.90
15143;DHT22;7672;50.834;6.286;2023-03-19T08:23:03;18.10;99.90
15143;DHT22;7672;50.834;6.286;2023-03-19T08:25:30;18.40;99.90
15143;DHT22;7672;50.834;6.286;2023-03-19T08:27:59;18.70;99.90
15143;DHT22;7672;50.834;6.286;2023-03-19T08:30:26;18.90;99.90
15143;DHT22;7672;50.834;6.286;2023-03-19T08:32:53;19.00;99.90
15143;DHT22;7672;50.834;6.286;2023-03-19T08:35:20;19.10;99.90
15143;DHT22;7672;50.834;6.286;2023-03-19T08:37:47;19.20;99.90
15143;DHT22;7672;50.834;6.286;2023-03-19T08:40:14;19.20;99.90
15143;DHT22;7672;50.834;6.286;2023-03-19T08:42:41;19.20;99.90
15143;DHT22;7672;50.834;6.286;2023-03-19T08:45:12;19.10;99.90
15143;DHT22;7672;50.834;6.286;2023-03-19T08:47:41;19.00;99.90
15143;DHT22;7672;50.834;6.286;2023-03-19T08:50:09;19.00;99.90
15143;DHT22;7672;50.834;6.286;2023-03-19T08:52:37;18.90;99.90
15143;DHT22;7672;50.834;6.286;2023-03-19T08:55:04;18.80;99.90
15143;DHT22;7672;50.834;6.286;2023-03-19T08:57:32;18.70;99.90
15143;DHT22;7672;50.834;6.286;2023-03-19T09:00:01;18.70;99.90
15143;DHT22;7672;50.834;6.286;2023-03-19T09:02:31;18.60;99.90
15143;DHT22;7672;50.834;6.286;2023-03-19T09:04:58;18.50;99.90
15143;DHT22;7672;50.834;6.286;2023-03-19T09:07:24;18.50;99.90
15143;DHT22;7672;50.834;6.286;2023-03-19T09:09:51;18.40;99.90
15143;DHT22;7672;50.834;6.286;2023-03-19T09:12:18;18.30;99.90
15143;DHT22;7672;50.834;6.286;2023-03-19T09:14:45;18.30;99.90
15143;DHT22;7672;50.834;6.286;2023-03-19T09:17:11;18.10;99.90
15143;DHT22;7672;50.834;6.286;2023-03-19T09:19:39;18.40;99.90
15143;DHT22;7672;50.834;6.286;2023-03-19T09:22:07;18.60;99.90
15143;DHT22;7672;50.834;6.286;2023-03-19T09:24:33;18.90;99.90
15143;DHT22;7672;50.834;6.286;2023-03-19T09:27:00;19.30;99.90
15143;DHT22;7672;50.834;6.286;2023-03-19T09:29:27;19.70;99.90
15143;DHT22;7672;50.834;6.286;2023-03-19T09:31:54;20.00;99.90
15143;DHT22;7672;50.834;6.286;2023-03-19T09:34:21;20.30;99.90
15143;DHT22;7672;50.834;6.286;2023-03-19T09:36:47;20.60;99.90
15143;DHT22;7672;50.834;6.286;2023-03-19T09:39:14;20.70;99.90
15143;DHT22;7672;50.834;6.286;2023-03-19T09:41:56;20.70;99.90
15143;DHT22;7672;50.834;6.286;2023-03-19T09:44:33;20.70;99.90
15143;DHT22;7672;50.834;6.286;2023-03-19T09:49:53;20.70;99.90
15143;DHT22;7672;50.834;6.286;2023-03-19T09:55:03;20.50;99.90
15143;DHT22;7672;50.834;6.286;2023-03-19T09:57:36;20.40;99.90
15143;DHT22;7672;50.834;6.286;2023-03-19T10:00:29;20.30;99.90
15143;DHT22;7672;50.834;6.286;2023-03-19T10:12:19;19.80;99.90
15143;DHT22;7672;50.834;6.286;2023-03-19T10:15:17;19.80;99.90
15143;DHT22;7672;50.834;6.286;2023-03-19T10:18:15;19.80;99.90
15143;DHT22;7672;50.834;6.286;2023-03-19T10:21:29;19.90;99.90
15143;DHT22;7672;50.834;6.286;2023-03-19T10:24:08;20.20;99.90
15143;DHT22;7672;50.834;6.286;2023-03-19T10:26:44;20.70;99.90
15143;DHT22;7672;50.834;6.286;2023-03-19T10:29:26;21.00;99.90
15143;DHT22;7672;50.834;6.286;2023-03-19T10:34:48;21.50;99.90
15143;DHT22;7672;50.834;6.286;2023-03-19T10:37:23;21.60;99.90
15143;DHT22;7672;50.834;6.286;2023-03-19T10:40:01;21.80;99.90
15143;DHT22;7672;50.834;6.286;2023-03-19T10:43:04;21.90;99.90
15143;DHT22;7672;50.834;6.286;2023-03-19T10:45:39;22.10;99.90
15143;DHT22;7672;50.834;6.286;2023-03-19T10:48:15;22.20;99.90
15143;DHT22;7672;50.834;6.286;2023-03-19T10:50:56;22.40;99.90
15143;DHT22;7672;50.834;6.286;2023-03-19T10:53:36;22.60;99.90
15143;DHT22;7672;50.834;6.286;2023-03-19T10:56:19;22.70;99.90
15143;DHT22;7672;50.834;6.286;2023-03-19T10:59:03;22.90;99.90
15143;DHT22;7672;50.834;6.286;2023-03-19T11:01:37;23.00;99.90
15143;DHT22;7672;50.834;6.286;2023-03-19T11:04:18;23.10;99.90
15143;DHT22;7672;50.834;6.286;2023-03-19T11:07:20;23.30;99.90
15143;DHT22;7672;50.834;6.286;2023-03-19T11:09:50;23.50;99.90
15143;DHT22;7672;50.834;6.286;2023-03-19T11:12:33;23.60;99.90
15143;DHT22;7672;50.834;6.286;2023-03-19T11:15:21;23.80;99.90
15143;DHT22;7672;50.834;6.286;2023-03-19T11:18:01;24.00;99.90
15143;DHT22;7672;50.834;6.286;2023-03-19T11:20:37;24.20;99.90
15143;DHT22;7672;50.834;6.286;2023-03-19T11:23:14;24.50;99.90
15143;DHT22;7672;50.834;6.286;2023-03-19T11:25:55;24.80;99.90
15143;DHT22;7672;50.834;6.286;2023-03-19T11:28:30;25.10;99.90
15143;DHT22;7672;50.834;6.286;2023-03-19T11:36:51;26.20;99.90
15143;DHT22;7672;50.834;6.286;2023-03-19T11:42:26;26.50;99.90
15143;DHT22;7672;50.834;6.286;2023-03-19T11:45:22;26.60;99.90
15143;DHT22;7672;50.834;6.286;2023-03-19T11:52:45;26.60;99.90
15143;DHT22;7672;50.834;6.286;2023-03-19T11:55:02;26.60;99.90
15143;DHT22;7672;50.834;6.286;2023-03-19T11:58:16;26.80;99.90
15143;DHT22;7672;50.834;6.286;2023-03-19T12:01:22;26.90;99.90
15143;DHT22;7672;50.834;6.286;2023-03-19T12:10:28;27.10;98.80
15143;DHT22;7672;50.834;6.286;2023-03-19T12:22:11;26.30;97.10
15143;DHT22;7672;50.834;6.286;2023-03-19T12:28:13;25.50;97.50
15143;DHT22;7672;50.834;6.286;2023-03-19T12:31:38;25.10;98.30
15143;DHT22;7672;50.834;6.286;2023-03-19T12:34:32;24.60;98.60
15143;DHT22;7672;50.834;6.286;2023-03-19T12:37:18;24.20;98.90
15143;DHT22;7672;50.834;6.286;2023-03-19T12:40:16;23.80;99.20
15143;DHT22;7672;50.834;6.286;2023-03-19T12:43:00;23.40;99.90
15143;DHT22;7672;50.834;6.286;2023-03-19T12:45:43;23.10;99.90
15143;DHT22;7672;50.834;6.286;2023-03-19T12:48:41;22.80;99.90
15143;DHT22;7672;50.834;6.286;2023-03-19T12:51:32;22.60;99.90
15143;DHT22;7672;50.834;6.286;2023-03-19T12:54:40;22.40;99.90
15143;DHT22;7672;50.834;6.286;2023-03-19T12:57:33;22.20;99.90
15143;DHT22;7672;50.834;6.286;2023-03-19T13:01:02;22.00;99.90
15143;DHT22;7672;50.834;6.286;2023-03-19T13:07:10;22.00;99.90
15143;DHT22;7672;50.834;6.286;2023-03-19T13:09:58;22.10;99.90
15143;DHT22;7672;50.834;6.286;2023-03-19T13:12:35;22.20;99.90
15143;DHT22;7672;50.834;6.286;2023-03-19T13:18:14;22.40;99.90
15143;DHT22;7672;50.834;6.286;2023-03-19T13:23:41;22.50;99.90
15143;DHT22;7672;50.834;6.286;2023-03-19T13:26:12;22.50;99.90
15143;DHT22;7672;50.834;6.286;2023-03-19T13:29:01;22.50;99.90
15143;DHT22;7672;50.834;6.286;2023-03-19T13:31:33;22.50;99.90
15143;DHT22;7672;50.834;6.286;2023-03-19T13:36:47;22.70;99.90
15143;DHT22;7672;50.834;6.286;2023-03-19T13:39:20;22.70;99.90
15143;DHT22;7672;50.834;6.286;2023-03-19T13:42:41;22.70;99.90
15143;DHT22;7672;50.834;6.286;2023-03-19T13:45:36;22.80;99.90
15143;DHT22;7672;50.834;6.286;2023-03-19T13:51:04;22.80;99.90
15143;DHT22;7672;50.834;6.286;2023-03-19T13:56:31;22.80;99.90
15143;DHT22;7672;50.834;6.286;2023-03-19T13:59:26;22.80;99.90
15143;DHT22;7672;50.834;6.286;2023-03-19T14:01:59;22.80;99.90
15143;DHT22;7672;50.834;6.286;2023-03-19T14:04:32;22.70;99.90
15143;DHT22;7672;50.834;6.286;2023-03-19T14:07:14;22.60;99.90
15143;DHT22;7672;50.834;6.286;2023-03-19T14:09:48;22.60;99.90
15143;DHT22;7672;50.834;6.286;2023-03-19T14:12:40;22.50;99.90
15143;DHT22;7672;50.834;6.286;2023-03-19T14:17:41;22.40;99.90
15143;DHT22;7672;50.834;6.286;2023-03-19T14:25:24;22.10;99.90
15143;DHT22;7672;50.834;6.286;2023-03-19T14:28:00;22.00;99.90
15143;DHT22;7672;50.834;6.286;2023-03-19T14:30:46;21.90;99.90
15143;DHT22;7672;50.834;6.286;2023-03-19T14:33:22;21.80;99.90
15143;DHT22;7672;50.834;6.286;2023-03-19T14:35:55;21.80;99.90
15143;DHT22;7672;50.834;6.286;2023-03-19T14:38:45;21.80;99.90
15143;DHT22;7672;50.834;6.286;2023-03-19T14:41:21;21.60;99.90
15143;DHT22;7672;50.834;6.286;2023-03-19T14:52:45;21.60;99.90
15143;DHT22;7672;50.834;6.286;2023-03-19T14:55:15;21.60;99.90
15143;DHT22;7672;50.834;6.286;2023-03-19T14:57:43;21.60;99.90
15143;DHT22;7672;50.834;6.286;2023-03-19T15:00:16;21.50;99.90
15143;DHT22;7672;50.834;6.286;2023-03-19T15:02:48;21.40;99.90
15143;DHT22;7672;50.834;6.286;2023-03-19T15:05:20;21.40;99.90
15143;DHT22;7672;50.834;6.286;2023-03-19T15:07:54;21.30;99.90
15143;DHT22;7672;50.834;6.286;2023-03-19T15:10:27;21.10;99.90
15143;DHT22;7672;50.834;6.286;2023-03-19T15:18:11;20.80;99.90
15143;DHT22;7672;50.834;6.286;2023-03-19T15:20:45;20.60;99.90
15143;DHT22;7672;50.834;6.286;2023-03-19T15:23:21;20.40;99.90
15143;DHT22;7672;50.834;6.286;2023-03-19T15:26:02;20.30;99.90
15143;DHT22;7672;50.834;6.286;2023-03-19T15:28:31;20.10;99.90
15143;DHT22;7672;50.834;6.286;2023-03-19T15:31:11;19.90;99.90
15143;DHT22;7672;50.834;6.286;2023-03-19T15:33:56;19.90;99.90
15143;DHT22;7672;50.834;6.286;2023-03-19T15:36:32;19.70;99.90
15143;DHT22;7672;50.834;6.286;2023-03-19T15:39:03;19.60;99.90
15143;DHT22;7672;50.834;6.286;2023-03-19T15:41:41;19.60;99.90
15143;DHT22;7672;50.834;6.286;2023-03-19T15:44:33;19.50;99.90
15143;DHT22;7672;50.834;6.286;2023-03-19T15:47:11;19.40;99.90
15143;DHT22;7672;50.834;6.286;2023-03-19T15:49:48;19.30;99.90
15143;DHT22;7672;50.834;6.286;2023-03-19T15:52:20;19.30;99.90
15143;DHT22;7672;50.834;6.286;2023-03-19T15:54:47;19.20;99.90
15143;DHT22;7672;50.834;6.286;2023-03-19T15:57:15;19.20;99.90
15143;DHT22;7672;50.834;6.286;2023-03-19T15:59:44;19.10;99.90
15143;DHT22;7672;50.834;6.286;2023-03-19T16:02:27;19.10;99.90
15143;DHT22;7672;50.834;6.286;2023-03-19T16:04:56;19.10;99.90
15143;DHT22;7672;50.834;6.286;2023-03-19T16:07:44;19.00;99.90
15143;DHT22;7672;50.834;6.286;2023-03-19T16:10:35;19.00;99.90
15143;DHT22;7672;50.834;6.286;2023-03-19T16:16:14;19.20;99.90
15143;DHT22;7672;50.834;6.286;2023-03-19T16:18:54;18.80;99.90
15143;DHT22;7672;50.834;6.286;2023-03-19T16:21:39;18.80;99.90
15143;DHT22;7672;50.834;6.286;2023-03-19T16:26:45;18.70;99.90
15143;DHT22;7672;50.834;6.286;2023-03-19T16:29:36;18.70;99.90
15143;DHT22;7672;50.834;6.286;2023-03-19T16:34:44;18.60;99.90
15143;DHT22;7672;50.834;6.286;2023-03-19T16:37:39;18.50;99.90
15143;DHT22;7672;50.834;6.286;2023-03-19T16:47:50;18.20;99.90
15143;DHT22;7672;50.834;6.286;2023-03-19T16:50:25;18.10;99.90
15143;DHT22;7672;50.834;6.286;2023-03-19T16:52:57;18.00;99.90
15143;DHT22;7672;50.834;6.286;2023-03-19T16:55:34;18.00;99.90
15143;DHT22;7672;50.834;6.286;2023-03-19T16:58:11;17.80;99.90
15143;DHT22;7672;50.834;6.286;2023-03-19T17:00:42;17.80;99.90
15143;DHT22;7672;50.834;6.286;2023-03-19T17:03:13;17.70;99.90
15143;DHT22;7672;50.834;6.286;2023-03-19T17:05:43;17.60;99.90
15143;DHT22;7672;50.834;6.286;2023-03-19T17:08:11;17.50;99.90
15143;DHT22;7672;50.834;6.286;2023-03-19T17:10:46;17.50;99.90
15143;DHT22;7672;50.834;6.286;2023-03-19T17:13:27;17.40;99.90
15143;DHT22;7672;50.834;6.286;2023-03-19T17:15:58;17.30;99.90
15143;DHT22;7672;50.834;6.286;2023-03-19T17:18:31;17.20;99.90
15143;DHT22;7672;50.834;6.286;2023-03-19T17:21:17;17.20;99.90
15143;DHT22;7672;50.834;6.286;2023-03-19T17:23:48;17.10;99.90
15143;DHT22;7672;50.834;6.286;2023-03-19T17:26:22;17.00;99.90
15143;DHT22;7672;50.834;6.286;2023-03-19T17:28:54;17.00;99.90
15143;DHT22;7672;50.834;6.286;2023-03-19T17:31:27;16.90;99.90
15143;DHT22;7672;50.834;6.286;2023-03-19T17:34:04;16.80;99.90
15143;DHT22;7672;50.834;6.286;2023-03-19T17:36:35;16.70;99.90
15143;DHT22;7672;50.834;6.286;2023-03-19T17:39:03;16.70;99.90
15143;DHT22;7672;50.834;6.286;2023-03-19T17:41:35;16.70;99.90
15143;DHT22;7672;50.834;6.286;2023-03-19T17:44:02;16.60;99.90
15143;DHT22;7672;50.834;6.286;2023-03-19T17:46:43;16.50;99.90
15143;DHT22;7672;50.834;6.286;2023-03-19T17:49:25;16.50;99.90
15143;DHT22;7672;50.834;6.286;2023-03-19T17:51:58;16.40;99.90
15143;DHT22;7672;50.834;6.286;2023-03-19T17:54:26;16.40;99.90
15143;DHT22;7672;50.834;6.286;2023-03-19T17:56:54;16.40;99.90
15143;DHT22;7672;50.834;6.286;2023-03-19T17:59:22;16.40;99.90
15143;DHT22;7672;50.834;6.286;2023-03-19T18:01:49;16.40;99.90
15143;DHT22;7672;50.834;6.286;2023-03-19T18:04:19;16.30;99.90
15143;DHT22;7672;50.834;6.286;2023-03-19T18:06:50;16.20;99.90
15143;DHT22;7672;50.834;6.286;2023-03-19T18:09:26;16.10;99.90
15143;DHT22;7672;50.834;6.286;2023-03-19T18:11:54;16.10;99.90
15143;DHT22;7672;50.834;6.286;2023-03-19T18:14:21;16.10;99.90